Time;durP1;ratioP1;P1;durP2;ratioP2;P2;SDS_P1;SDS_P2;PMS_P1;PMS_P2;Temp;Humidity;BMP_temperature;BMP_pressure;BME280_temperature;BME280_humidity;BME280_pressure;Samples;Min_cycle;Max_cycle;Signal;HPM_P1;HPM_P2
2022/03/02 00:00:54;;;;;;;14.88;6.95;;;;;;;;;;5102012;28;20047;-75
2022/03/02 00:03:19;;;;;;;17.55;6.82;;;;;;;;;;5102903;28;20038;-75
2022/03/02 00:05:44;;;;;;;12.48;6.72;;;;;;;;;;5102261;28;20052;-75
2022/03/02 00:08:10;;;;;;;14.80;7.65;;;;;;;;;;5102404;28;20028;-75
2022/03/02 00:10:35;;;;;;;11.48;6.40;;;;;;;;;;5102329;28;20024;-75
2022/03/02 00:13:01;;;;;;;13.85;7.38;;;;;;;;;;5102634;28;20054;-75
2022/03/02 00:15:26;;;;;;;14.75;8.40;;;;;;;;;;5101150;28;20027;-75
2022/03/02 00:17:52;;;;;;;16.08;7.90;;;;;;;;;;5101220;28;20047;-74
2022/03/02 00:20:18;;;;;;;12.10;6.82;;;;;;;;;;5102376;28;20024;-75
2022/03/02 00:22:43;;;;;;;16.52;8.18;;;;;;;;;;5101539;28;20028;-75
2022/03/02 00:25:09;;;;;;;12.55;7.35;;;;;;;;;;5102828;28;20091;-75
2022/03/02 00:27:35;;;;;;;15.88;7.82;;;;;;;;;;5106071;28;20032;-75
2022/03/02 00:30:02;;;;;;;15.82;7.68;;;;;;;;;;5106529;28;20077;-75
2022/03/02 00:32:28;;;;;;;18.15;7.45;;;;;;;;;;5105750;28;20016;-75
2022/03/02 00:34:53;;;;;;;12.50;7.80;;;;;;;;;;5106413;28;20039;-75
2022/03/02 00:37:18;;;;;;;14.63;7.07;;;;;;;;;;5105514;28;20090;-75
2022/03/02 00:39:47;;;;;;;12.23;6.97;;;;;;;;;;5106285;28;20032;-75
2022/03/02 00:42:12;;;;;;;17.50;8.00;;;;;;;;;;5106681;28;20137;-75
2022/03/02 00:44:38;;;;;;;17.88;7.95;;;;;;;;;;5105963;28;20476;-75
2022/03/02 00:47:04;;;;;;;13.60;7.57;;;;;;;;;;5106677;28;20115;-75
2022/03/02 00:49:31;;;;;;;10.55;5.80;;;;;;;;;;5105250;28;20028;-75
2022/03/02 00:51:57;;;;;;;14.63;7.75;;;;;;;;;;5106626;28;20062;-75
2022/03/02 00:54:23;;;;;;;18.17;8.80;;;;;;;;;;5104640;28;20031;-75
2022/03/02 00:56:49;;;;;;;13.35;7.43;;;;;;;;;;5106095;28;20032;-74
2022/03/02 00:59:14;;;;;;;17.20;8.63;;;;;;;;;;5106265;28;20444;-75
2022/03/02 01:01:40;;;;;;;14.65;8.70;;;;;;;;;;5104477;28;20028;-75
2022/03/02 01:04:07;;;;;;;13.85;7.45;;;;;;;;;;5106055;28;20450;-75
2022/03/02 01:06:33;;;;;;;14.60;7.80;;;;;;;;;;5104961;28;20059;-75
2022/03/02 01:08:58;;;;;;;13.57;7.55;;;;;;;;;;5105795;28;20103;-75
2022/03/02 01:11:24;;;;;;;12.10;7.55;;;;;;;;;;5104743;28;20071;-75
2022/03/02 01:13:49;;;;;;;14.48;8.02;;;;;;;;;;5105966;28;20469;-75
2022/03/02 01:16:15;;;;;;;17.63;8.45;;;;;;;;;;5104306;28;20043;-75
2022/03/02 01:18:41;;;;;;;18.30;8.75;;;;;;;;;;5104440;28;20099;-75
2022/03/02 01:21:06;;;;;;;15.10;7.97;;;;;;;;;;5104393;28;20016;-75
2022/03/02 01:23:32;;;;;;;15.65;7.78;;;;;;;;;;5105183;28;20036;-75
2022/03/02 01:26:01;;;;;;;16.50;8.60;;;;;;;;;;5103382;28;20059;-75
2022/03/02 01:28:26;;;;;;;20.90;8.65;;;;;;;;;;5103521;28;20020;-75
2022/03/02 01:30:52;;;;;;;14.15;9.05;;;;;;;;;;5105189;28;20058;-75
2022/03/02 01:33:17;;;;;;;21.48;9.48;;;;;;;;;;5105223;28;20032;-75
2022/03/02 01:35:43;;;;;;;17.45;8.52;;;;;;;;;;5105170;28;20583;-75
2022/03/02 01:38:08;;;;;;;15.88;8.30;;;;;;;;;;5104388;28;20048;-75
2022/03/02 01:40:34;;;;;;;15.38;8.15;;;;;;;;;;5105163;28;20038;-75
2022/03/02 01:42:59;;;;;;;16.30;8.63;;;;;;;;;;5103856;28;20028;-75
2022/03/02 01:45:25;;;;;;;13.85;7.68;;;;;;;;;;5105459;28;20036;-75
2022/03/02 01:47:51;;;;;;;17.25;9.13;;;;;;;;;;5105356;28;20055;-74
2022/03/02 01:50:17;;;;;;;15.88;8.52;;;;;;;;;;5105170;28;20035;-75
2022/03/02 01:52:43;;;;;;;15.77;7.90;;;;;;;;;;5105479;28;20035;-73
2022/03/02 01:55:09;;;;;;;13.60;7.22;;;;;;;;;;5104878;28;20032;-73
2022/03/02 01:57:35;;;;;;;16.35;8.45;;;;;;;;;;5104611;28;20133;-73
2022/03/02 02:00:08;;;;;;;15.48;8.50;;;;;;;;;;5104736;28;20028;-72
2022/03/02 02:02:33;;;;;;;18.83;8.98;;;;;;;;;;5103322;28;20032;-73
2022/03/02 02:04:59;;;;;;;17.52;8.68;;;;;;;;;;5104903;28;20082;-73
2022/03/02 02:07:25;;;;;;;15.77;8.07;;;;;;;;;;5103871;28;20039;-73
2022/03/02 02:09:52;;;;;;;16.08;8.45;;;;;;;;;;5103142;28;20051;-73
2022/03/02 02:12:18;;;;;;;14.93;8.18;;;;;;;;;;5103476;28;20066;-74
2022/03/02 02:14:44;;;;;;;12.65;7.93;;;;;;;;;;5103373;28;20028;-73
2022/03/02 02:17:09;;;;;;;14.10;7.95;;;;;;;;;;5102537;28;20039;-74
2022/03/02 02:19:35;;;;;;;14.20;7.68;;;;;;;;;;5103711;28;20458;-74
2022/03/02 02:22:00;;;;;;;15.88;8.25;;;;;;;;;;5102831;28;20024;-73
2022/03/02 02:24:26;;;;;;;15.93;9.35;;;;;;;;;;5104452;28;20378;-74
2022/03/02 02:26:52;;;;;;;16.13;8.95;;;;;;;;;;5103754;28;20600;-74
2022/03/02 02:29:20;;;;;;;14.77;8.27;;;;;;;;;;5104197;28;20081;-74
2022/03/02 02:31:46;;;;;;;15.20;9.05;;;;;;;;;;5103068;28;20042;-74
2022/03/02 02:34:11;;;;;;;16.23;8.02;;;;;;;;;;5102958;28;20047;-73
2022/03/02 02:36:38;;;;;;;17.30;8.88;;;;;;;;;;5103336;28;20077;-74
2022/03/02 02:39:05;;;;;;;19.10;9.05;;;;;;;;;;5103910;28;20108;-73
2022/03/02 02:41:30;;;;;;;20.55;8.93;;;;;;;;;;5103026;28;20144;-73
2022/03/02 02:43:55;;;;;;;16.35;9.23;;;;;;;;;;5103977;28;20529;-74
2022/03/02 02:46:21;;;;;;;15.88;8.95;;;;;;;;;;5102700;28;20035;-74
2022/03/02 02:48:46;;;;;;;15.70;8.95;;;;;;;;;;5102314;28;20406;-73
2022/03/02 02:51:12;;;;;;;17.60;8.70;;;;;;;;;;5102758;28;20032;-73
2022/03/02 02:53:37;;;;;;;14.73;9.10;;;;;;;;;;5103404;28;20024;-74
2022/03/02 02:56:03;;;;;;;15.30;8.68;;;;;;;;;;5102098;28;20103;-73
2022/03/02 02:58:28;;;;;;;17.45;8.93;;;;;;;;;;5103528;28;20036;-73
2022/03/02 03:00:54;;;;;;;14.50;7.93;;;;;;;;;;5101674;28;20032;-73
2022/03/02 03:03:20;;;;;;;14.82;8.20;;;;;;;;;;5104023;28;20054;-73
2022/03/02 03:05:45;;;;;;;14.05;7.78;;;;;;;;;;5103916;28;20087;-73
2022/03/02 03:08:12;;;;;;;15.38;8.95;;;;;;;;;;5103428;28;20505;-73
2022/03/02 03:10:40;;;;;;;15.32;7.82;;;;;;;;;;5103612;28;20035;-73
2022/03/02 03:13:06;;;;;;;15.05;7.95;;;;;;;;;;5102266;28;20055;-73
2022/03/02 03:15:34;;;;;;;14.27;8.40;;;;;;;;;;5103433;28;20059;-73
2022/03/02 03:17:59;;;;;;;17.65;7.68;;;;;;;;;;5103566;28;20023;-73
2022/03/02 03:20:27;;;;;;;15.75;8.20;;;;;;;;;;5103391;28;20036;-74
2022/03/02 03:22:54;;;;;;;16.20;7.80;;;;;;;;;;5102021;28;20017;-73
2022/03/02 03:25:20;;;;;;;14.35;8.10;;;;;;;;;;5101726;28;20052;-74
2022/03/02 03:27:46;;;;;;;14.15;7.45;;;;;;;;;;5101765;28;20123;-74
2022/03/02 03:30:13;;;;;;;13.70;7.28;;;;;;;;;;5102255;28;20027;-73
2022/03/02 03:32:39;;;;;;;17.25;8.00;;;;;;;;;;5101678;28;20043;-73
2022/03/02 03:35:07;;;;;;;13.20;7.82;;;;;;;;;;5102790;28;20024;-73
2022/03/02 03:37:32;;;;;;;11.27;7.65;;;;;;;;;;5103089;28;20044;-73
2022/03/02 03:39:58;;;;;;;16.25;8.13;;;;;;;;;;5103150;28;20028;-73
2022/03/02 03:42:24;;;;;;;14.88;6.97;;;;;;;;;;5103301;28;20035;-73
2022/03/02 03:44:50;;;;;;;22.10;8.00;;;;;;;;;;5102999;28;20075;-73
2022/03/02 03:47:15;;;;;;;15.85;8.23;;;;;;;;;;5103351;28;20028;-73
2022/03/02 03:49:41;;;;;;;17.77;7.72;;;;;;;;;;5102894;28;20027;-73
2022/03/02 03:52:07;;;;;;;13.55;8.07;;;;;;;;;;5101716;28;20032;-73
2022/03/02 03:54:32;;;;;;;17.52;8.00;;;;;;;;;;5102849;28;20032;-73
2022/03/02 03:56:57;;;;;;;16.20;8.23;;;;;;;;;;5103216;28;20024;-73
2022/03/02 03:59:23;;;;;;;15.68;7.78;;;;;;;;;;5101889;28;20028;-73
2022/03/02 04:01:48;;;;;;;14.48;7.05;;;;;;;;;;5103300;28;20024;-73
2022/03/02 04:04:14;;;;;;;12.13;7.50;;;;;;;;;;5102816;28;20092;-73
2022/03/02 04:06:39;;;;;;;16.50;8.70;;;;;;;;;;5102836;28;20032;-73
2022/03/02 04:09:05;;;;;;;16.23;8.70;;;;;;;;;;5102655;28;20091;-73
2022/03/02 04:11:30;;;;;;;16.30;8.55;;;;;;;;;;5101399;28;20510;-73
2022/03/02 04:13:56;;;;;;;14.48;7.80;;;;;;;;;;5102762;28;20028;-74
2022/03/02 04:16:21;;;;;;;19.05;9.50;;;;;;;;;;5101767;28;20024;-73
2022/03/02 04:18:47;;;;;;;18.10;8.35;;;;;;;;;;5102747;28;20028;-73
2022/03/02 04:21:12;;;;;;;13.13;7.50;;;;;;;;;;5102137;28;20036;-73
2022/03/02 04:23:38;;;;;;;15.55;8.23;;;;;;;;;;5101254;28;20059;-73
2022/03/02 04:26:04;;;;;;;17.02;8.20;;;;;;;;;;5102643;28;20092;-74
2022/03/02 04:28:29;;;;;;;18.55;8.25;;;;;;;;;;5102321;28;20054;-73
2022/03/02 04:30:59;;;;;;;15.82;8.32;;;;;;;;;;5102430;28;20093;-73
2022/03/02 04:33:24;;;;;;;16.45;8.27;;;;;;;;;;5102365;28;20024;-74
2022/03/02 04:35:49;;;;;;;16.63;7.88;;;;;;;;;;5102794;28;20040;-73
2022/03/02 04:38:15;;;;;;;15.50;8.30;;;;;;;;;;5102585;28;20035;-74
2022/03/02 04:40:41;;;;;;;16.88;8.38;;;;;;;;;;5100913;28;20039;-74
2022/03/02 04:43:07;;;;;;;14.35;8.77;;;;;;;;;;5102850;28;20024;-74
2022/03/02 04:45:34;;;;;;;15.18;8.70;;;;;;;;;;5102035;28;20032;-73
2022/03/02 04:48:00;;;;;;;15.02;8.15;;;;;;;;;;5102361;28;20031;-73
2022/03/02 04:50:26;;;;;;;14.32;8.05;;;;;;;;;;5101121;28;20027;-73
2022/03/02 04:52:54;;;;;;;19.08;9.20;;;;;;;;;;5100867;28;20326;-75
2022/03/02 04:55:20;;;;;;;18.65;9.25;;;;;;;;;;5100975;28;20596;-74
2022/03/02 04:57:54;;;;;;;20.13;9.43;;;;;;;;;;5101007;28;20032;-74
2022/03/02 05:00:28;;;;;;;16.92;8.48;;;;;;;;;;5101184;28;20131;-74
2022/03/02 05:02:54;;;;;;;;;;;;;;;;;;5102876;28;20040;-74
2022/03/02 05:05:21;;;;;;;15.07;7.35;;;;;;;;;;5101140;28;19912;-74
2022/03/02 05:07:47;;;;;;;14.18;7.97;;;;;;;;;;5102067;28;20370;-74
2022/03/02 05:10:14;;;;;;;15.32;9.05;;;;;;;;;;5102584;28;20027;-74
2022/03/02 05:12:40;;;;;;;16.77;9.02;;;;;;;;;;5106209;28;20066;-74
2022/03/02 05:15:08;;;;;;;19.27;9.43;;;;;;;;;;5106100;28;20028;-74
2022/03/02 05:17:34;;;;;;;15.27;8.73;;;;;;;;;;5105097;28;20077;-75
2022/03/02 05:19:59;;;;;;;18.95;9.00;;;;;;;;;;5104792;28;20083;-74
2022/03/02 05:22:25;;;;;;;19.05;10.05;;;;;;;;;;5105348;28;20051;-74
2022/03/02 05:24:50;;;;;;;18.17;8.90;;;;;;;;;;5105022;28;20036;-74
2022/03/02 05:27:16;;;;;;;18.50;9.65;;;;;;;;;;5104024;28;20020;-74
2022/03/02 05:29:41;;;;;;;15.95;8.80;;;;;;;;;;5105443;28;20377;-74
2022/03/02 05:32:07;;;;;;;15.60;9.68;;;;;;;;;;5105204;28;20059;-75
2022/03/02 05:34:33;;;;;;;15.65;8.95;;;;;;;;;;5103259;28;20062;-74
2022/03/02 05:36:58;;;;;;;14.50;8.30;;;;;;;;;;5105424;28;20032;-74
2022/03/02 05:39:24;;;;;;;14.13;8.38;;;;;;;;;;5105088;28;20028;-74
2022/03/02 05:41:52;;;;;;;16.95;8.90;;;;;;;;;;5105372;28;20110;-75
2022/03/02 05:44:18;;;;;;;17.02;9.38;;;;;;;;;;5104959;28;20035;-74
2022/03/02 05:46:44;;;;;;;17.02;9.07;;;;;;;;;;5103195;28;20099;-74
2022/03/02 05:49:10;;;;;;;15.48;9.32;;;;;;;;;;5102752;28;20031;-74
2022/03/02 05:51:36;;;;;;;14.90;8.30;;;;;;;;;;5104945;28;20227;-75
2022/03/02 05:54:04;;;;;;;16.85;9.07;;;;;;;;;;5105357;28;20557;-74
2022/03/02 05:56:30;;;;;;;15.98;8.77;;;;;;;;;;5105324;28;20030;-74
2022/03/02 05:58:56;;;;;;;13.70;8.50;;;;;;;;;;5104858;28;20081;-75
2022/03/02 06:01:21;;;;;;;14.55;8.60;;;;;;;;;;5105154;28;20024;-74
2022/03/02 06:03:49;;;;;;;14.70;8.13;;;;;;;;;;5105144;28;20479;-75
2022/03/02 06:06:15;;;;;;;15.57;7.55;;;;;;;;;;5105219;28;20032;-75
2022/03/02 06:08:41;;;;;;;13.68;7.22;;;;;;;;;;5103690;28;20028;-74
2022/03/02 06:11:06;;;;;;;17.98;9.20;;;;;;;;;;5105152;28;20103;-75
2022/03/02 06:13:32;;;;;;;19.15;9.23;;;;;;;;;;5104868;28;20028;-74
2022/03/02 06:15:58;;;;;;;18.13;9.20;;;;;;;;;;5104825;28;20039;-75
2022/03/02 06:18:25;;;;;;;17.30;9.32;;;;;;;;;;5104902;28;20024;-74
2022/03/02 06:20:52;;;;;;;17.35;8.43;;;;;;;;;;5104404;28;20458;-74
2022/03/02 06:23:19;;;;;;;13.25;8.32;;;;;;;;;;5101973;28;20050;-74
2022/03/02 06:25:44;;;;;;;15.40;8.48;;;;;;;;;;5103923;28;20074;-74
2022/03/02 06:28:10;;;;;;;17.20;8.20;;;;;;;;;;5103846;28;20024;-74
2022/03/02 06:30:36;;;;;;;14.25;8.55;;;;;;;;;;5104297;28;20119;-75
2022/03/02 06:33:01;;;;;;;14.05;8.70;;;;;;;;;;5104358;28;20031;-75
2022/03/02 06:35:27;;;;;;;15.88;8.27;;;;;;;;;;5104564;28;20027;-74
2022/03/02 06:37:52;;;;;;;14.88;8.10;;;;;;;;;;5104490;28;20028;-74
2022/03/02 06:40:18;;;;;;;14.60;8.00;;;;;;;;;;5104301;28;20020;-75
2022/03/02 06:43:02;;;;;;;12.98;7.57;;;;;;;;;;5104438;28;20024;-74
2022/03/02 06:45:45;;;;;;;11.45;7.72;;;;;;;;;;5103770;28;20062;-74
2022/03/02 06:48:13;;;;;;;12.77;6.87;;;;;;;;;;5104133;28;20054;-74
2022/03/02 06:50:42;;;;;;;11.48;6.88;;;;;;;;;;5104409;28;20035;-74
2022/03/02 06:53:12;;;;;;;11.40;6.75;;;;;;;;;;5104075;28;20020;-75
2022/03/02 06:55:40;;;;;;;13.70;7.25;;;;;;;;;;5103574;28;20024;-74
2022/03/02 06:58:09;;;;;;;11.80;7.40;;;;;;;;;;5102454;28;20036;-74
2022/03/02 07:00:36;;;;;;;13.23;7.90;;;;;;;;;;5103146;28;20051;-74
2022/03/02 07:03:07;;;;;;;12.63;6.85;;;;;;;;;;5103855;28;20127;-74
2022/03/02 07:05:34;;;;;;;12.60;6.95;;;;;;;;;;5103946;28;20111;-74
2022/03/02 07:08:03;;;;;;;12.77;7.25;;;;;;;;;;5103819;28;20024;-74
2022/03/02 07:10:32;;;;;;;15.63;7.75;;;;;;;;;;5103786;28;20105;-74
2022/03/02 07:12:58;;;;;;;14.38;8.77;;;;;;;;;;5103749;28;20032;-74
2022/03/02 07:15:25;;;;;;;13.77;8.57;;;;;;;;;;5103744;28;20087;-74
2022/03/02 07:17:51;;;;;;;12.18;7.55;;;;;;;;;;5102334;28;20032;-74
2022/03/02 07:20:17;;;;;;;14.95;8.05;;;;;;;;;;5102679;28;20092;-74
2022/03/02 07:22:47;;;;;;;13.15;7.97;;;;;;;;;;5103824;28;20055;-74
2022/03/02 07:25:26;;;;;;;15.82;8.95;;;;;;;;;;5103566;28;20047;-75
2022/03/02 07:27:54;;;;;;;15.45;8.73;;;;;;;;;;5103667;28;20024;-75
2022/03/02 07:30:20;;;;;;;17.50;8.27;;;;;;;;;;5103536;28;20039;-74
2022/03/02 07:32:47;;;;;;;14.32;8.05;;;;;;;;;;5103704;28;20036;-75
2022/03/02 07:35:15;;;;;;;13.65;7.68;;;;;;;;;;5103451;28;20134;-75
2022/03/02 07:37:43;;;;;;;13.57;7.50;;;;;;;;;;5103412;28;20047;-74
2022/03/02 07:40:10;;;;;;;13.25;8.27;;;;;;;;;;5103185;28;20547;-75
2022/03/02 07:42:36;;;;;;;14.23;7.75;;;;;;;;;;5103385;28;20068;-74
2022/03/02 07:45:02;;;;;;;12.65;7.28;;;;;;;;;;5103296;28;20035;-75
2022/03/02 07:47:28;;;;;;;14.80;8.07;;;;;;;;;;5101849;28;20059;-74
2022/03/02 07:49:53;;;;;;;13.98;8.40;;;;;;;;;;5101841;28;20028;-74
2022/03/02 07:52:24;;;;;;;12.23;8.05;;;;;;;;;;5103190;28;20032;-74
2022/03/02 07:54:53;;;;;;;15.32;8.30;;;;;;;;;;5103538;28;20028;-74
2022/03/02 07:57:19;;;;;;;15.93;8.27;;;;;;;;;;5103218;28;20024;-74
2022/03/02 07:59:44;;;;;;;16.27;7.90;;;;;;;;;;5103113;28;20497;-74
2022/03/02 08:02:12;;;;;;;14.02;8.02;;;;;;;;;;5103237;28;20320;-74
2022/03/02 08:04:39;;;;;;;15.05;8.50;;;;;;;;;;5103269;28;20031;-74
2022/03/02 08:07:05;;;;;;;15.25;7.97;;;;;;;;;;5101639;28;20031;-74
2022/03/02 08:09:31;;;;;;;15.38;7.85;;;;;;;;;;5101484;28;20035;-74
2022/03/02 08:11:58;;;;;;;17.48;7.75;;;;;;;;;;5101933;28;20020;-75
2022/03/02 08:14:24;;;;;;;13.60;7.53;;;;;;;;;;5103054;28;20032;-74
2022/03/02 08:16:51;;;;;;;19.33;7.88;;;;;;;;;;5103107;28;20053;-74
2022/03/02 08:19:18;;;;;;;17.35;8.30;;;;;;;;;;5101566;28;20038;-74
2022/03/02 08:21:46;;;;;;;13.57;8.20;;;;;;;;;;5102888;28;20021;-75
2022/03/02 08:24:15;;;;;;;17.70;8.93;;;;;;;;;;5101570;28;20032;-75
2022/03/02 08:26:40;;;;;;;15.48;8.35;;;;;;;;;;5099939;28;20048;-74
2022/03/02 08:29:11;;;;;;;13.52;7.80;;;;;;;;;;5101636;28;20089;-74
2022/03/02 08:31:40;;;;;;;12.13;7.30;;;;;;;;;;5102595;28;20024;-74
2022/03/02 08:34:06;;;;;;;13.60;8.32;;;;;;;;;;5100843;28;20035;-74
2022/03/02 08:36:33;;;;;;;13.55;7.82;;;;;;;;;;5103074;28;20040;-75
2022/03/02 08:39:11;;;;;;;16.00;7.85;;;;;;;;;;5103047;28;20035;-74
2022/03/02 08:41:39;;;;;;;13.05;7.85;;;;;;;;;;5103025;28;20028;-75
2022/03/02 08:44:05;;;;;;;15.88;8.40;;;;;;;;;;5102568;28;20110;-74
2022/03/02 08:46:31;;;;;;;13.15;6.82;;;;;;;;;;5106019;28;20039;-74
2022/03/02 08:48:57;;;;;;;13.65;6.88;;;;;;;;;;5107129;28;20032;-75
2022/03/02 08:51:26;;;;;;;13.73;7.75;;;;;;;;;;5107017;28;20032;-74
2022/03/02 08:53:58;;;;;;;12.05;7.28;;;;;;;;;;5106191;28;20032;-74
2022/03/02 08:56:25;;;;;;;14.48;7.35;;;;;;;;;;5105298;28;20052;-74
2022/03/02 08:58:54;;;;;;;14.52;7.28;;;;;;;;;;5106604;28;20052;-74
2022/03/02 09:01:20;;;;;;;16.02;7.22;;;;;;;;;;5106262;28;20035;-74
2022/03/02 09:03:51;;;;;;;12.93;6.38;;;;;;;;;;5106645;28;20039;-74
2022/03/02 09:06:19;;;;;;;10.35;5.97;;;;;;;;;;5106491;28;20548;-74
2022/03/02 09:08:45;;;;;;;11.80;6.85;;;;;;;;;;5106569;28;20028;-74
2022/03/02 09:11:10;;;;;;;10.88;6.50;;;;;;;;;;5106350;28;20082;-75
2022/03/02 09:13:40;;;;;;;12.55;6.70;;;;;;;;;;5106395;28;20096;-74
2022/03/02 09:16:07;;;;;;;13.55;7.40;;;;;;;;;;5105027;28;20044;-75
2022/03/02 09:18:33;;;;;;;12.93;6.93;;;;;;;;;;5105897;28;20252;-74
2022/03/02 09:21:05;;;;;;;12.32;7.55;;;;;;;;;;5104873;28;20113;-75
2022/03/02 09:23:34;;;;;;;12.65;7.15;;;;;;;;;;5106413;28;20028;-74
2022/03/02 09:26:05;;;;;;;13.65;7.13;;;;;;;;;;5104305;28;20044;-75
2022/03/02 09:28:39;;;;;;;19.65;7.10;;;;;;;;;;5105875;28;20024;-74
2022/03/02 09:31:07;;;;;;;11.52;6.45;;;;;;;;;;5106167;28;20032;-75
2022/03/02 09:33:34;;;;;;;11.55;6.88;;;;;;;;;;5104926;28;20032;-74
2022/03/02 09:36:13;;;;;;;12.93;6.53;;;;;;;;;;5105319;28;20122;-75
2022/03/02 09:38:39;;;;;;;13.30;5.68;;;;;;;;;;5106020;28;20503;-74
2022/03/02 09:41:17;;;;;;;10.00;5.40;;;;;;;;;;5106221;28;20054;-75
2022/03/02 09:43:50;;;;;;;11.32;5.95;;;;;;;;;;5105959;28;20035;-74
2022/03/02 09:46:17;;;;;;;;;;;;;;;;;;5105193;28;20108;-75
2022/03/02 09:48:53;;;;;;;13.52;4.47;;;;;;;;;;5106076;28;19908;-74
2022/03/02 09:51:24;;;;;;;10.68;5.35;;;;;;;;;;5106129;28;20082;-74
2022/03/02 09:53:54;;;;;;;10.18;4.50;;;;;;;;;;5104951;28;20028;-74
2022/03/02 09:56:24;;;;;;;9.18;4.75;;;;;;;;;;5105875;28;20032;-75
2022/03/02 09:58:53;;;;;;;8.45;4.20;;;;;;;;;;5104619;28;20133;-74
2022/03/02 10:01:24;;;;;;;11.48;4.90;;;;;;;;;;5105563;28;20031;-75
2022/03/02 10:03:52;;;;;;;8.70;5.03;;;;;;;;;;5104055;28;20032;-74
2022/03/02 10:06:19;;;;;;;8.57;5.53;;;;;;;;;;5105528;28;20028;-74
2022/03/02 10:08:54;;;;;;;8.15;4.35;;;;;;;;;;5104050;28;20035;-74
2022/03/02 10:11:24;;;;;;;12.80;6.55;;;;;;;;;;5104052;28;20173;-74
2022/03/02 10:14:01;;;;;;;8.25;3.63;;;;;;;;;;5105234;28;20024;-74
2022/03/02 10:16:28;;;;;;;13.73;6.05;;;;;;;;;;5105033;28;20320;-74
2022/03/02 10:18:59;;;;;;;11.95;6.57;;;;;;;;;;5105191;28;20055;-74
2022/03/02 10:21:33;;;;;;;11.82;6.35;;;;;;;;;;5103744;28;20024;-74
2022/03/02 10:24:00;;;;;;;10.98;6.47;;;;;;;;;;5104081;28;20035;-74
2022/03/02 10:26:29;;;;;;;10.65;6.43;;;;;;;;;;5104876;28;20048;-74
2022/03/02 10:29:32;;;;;;;10.20;6.22;;;;;;;;;;5105032;28;20024;-74
2022/03/02 10:32:05;;;;;;;8.98;6.20;;;;;;;;;;5104939;28;20035;-74
2022/03/02 10:34:31;;;;;;;9.55;5.38;;;;;;;;;;5104901;28;20462;-74
2022/03/02 10:37:15;;;;;;;11.43;6.28;;;;;;;;;;5104844;28;20038;-74
2022/03/02 10:39:54;;;;;;;12.13;6.40;;;;;;;;;;5103672;28;20450;-75
2022/03/02 10:42:31;;;;;;;9.55;5.70;;;;;;;;;;5104923;28;20135;-74
2022/03/02 10:45:16;;;;;;;13.45;6.10;;;;;;;;;;5100907;28;20049;-74
2022/03/02 10:47:59;;;;;;;10.65;5.65;;;;;;;;;;5104668;28;20311;-74
2022/03/02 10:50:33;;;;;;;10.73;5.40;;;;;;;;;;5104621;28;20032;-75
2022/03/02 10:53:00;;;;;;;;;;;;;;;;;;5104000;28;20039;-75
2022/03/02 10:55:29;;;;;;;9.23;3.90;;;;;;;;;;5104762;28;19912;-74
2022/03/02 10:58:01;;;;;;;9.18;3.97;;;;;;;;;;5104721;28;20027;-75
2022/03/02 11:00:27;;;;;;;9.13;4.20;;;;;;;;;;5104679;28;20030;-74
2022/03/02 11:02:57;;;;;;;9.60;4.78;;;;;;;;;;5104568;28;20410;-74
2022/03/02 11:05:24;;;;;;;10.40;5.90;;;;;;;;;;5104557;28;20024;-74
2022/03/02 11:07:50;;;;;;;12.45;5.60;;;;;;;;;;5102963;28;20053;-74
2022/03/02 11:10:37;;;;;;;7.30;3.97;;;;;;;;;;5104163;28;20109;-74
2022/03/02 11:13:11;;;;;;;9.32;5.03;;;;;;;;;;5103633;28;20060;-74
2022/03/02 11:15:48;;;;;;;8.32;5.15;;;;;;;;;;5103924;28;20079;-74
2022/03/02 11:18:16;;;;;;;10.13;5.25;;;;;;;;;;5102689;28;20050;-74
2022/03/02 11:20:52;;;;;;;9.80;4.57;;;;;;;;;;5103509;28;20114;-74
2022/03/02 11:23:24;;;;;;;13.80;6.18;;;;;;;;;;5103727;28;20031;-74
2022/03/02 11:25:52;;;;;;;12.85;5.75;;;;;;;;;;5103271;28;20350;-74
2022/03/02 11:28:25;;;;;;;11.60;6.18;;;;;;;;;;5102251;28;20020;-74
2022/03/02 11:31:00;;;;;;;11.10;5.70;;;;;;;;;;5103760;28;20032;-74
2022/03/02 11:33:28;;;;;;;12.35;5.80;;;;;;;;;;5103503;28;20077;-74
2022/03/02 11:36:07;;;;;;;10.73;6.03;;;;;;;;;;5103353;28;20111;-75
2022/03/02 11:38:33;;;;;;;7.57;4.18;;;;;;;;;;5102812;28;20116;-74
2022/03/02 11:41:04;;;;;;;9.65;4.65;;;;;;;;;;5103327;28;20039;-75
2022/03/02 11:43:31;;;;;;;11.00;5.22;;;;;;;;;;5101944;28;20110;-74
2022/03/02 11:46:02;;;;;;;8.93;4.97;;;;;;;;;;5103366;28;20024;-75
2022/03/02 11:48:30;;;;;;;8.88;4.05;;;;;;;;;;5101661;28;20048;-74
2022/03/02 11:51:20;;;;;;;11.98;5.70;;;;;;;;;;5103095;28;20093;-76
2022/03/02 11:53:50;;;;;;;6.10;3.42;;;;;;;;;;5103127;28;20493;-74
2022/03/02 11:56:18;;;;;;;9.63;6.30;;;;;;;;;;5102972;28;20461;-75
2022/03/02 11:59:09;;;;;;;13.27;5.75;;;;;;;;;;5101825;28;20719;-74
2022/03/02 12:01:42;;;;;;;13.10;6.55;;;;;;;;;;5102749;28;20489;-74
2022/03/02 12:04:09;;;;;;;10.88;6.25;;;;;;;;;;5101218;28;20024;-74
2022/03/02 12:06:41;;;;;;;11.13;6.47;;;;;;;;;;5102884;28;20028;-74
2022/03/02 12:09:06;;;;;;;13.15;7.18;;;;;;;;;;5103220;28;20028;-74
2022/03/02 12:11:35;;;;;;;11.68;6.38;;;;;;;;;;5103035;28;20059;-74
2022/03/02 12:14:06;;;;;;;12.13;7.15;;;;;;;;;;5102751;28;20036;-75
2022/03/02 12:16:51;;;;;;;14.13;7.20;;;;;;;;;;5102963;28;20448;-74
2022/03/02 12:19:27;;;;;;;13.02;6.38;;;;;;;;;;5102908;28;20028;-74
2022/03/02 12:22:03;;;;;;;11.02;7.53;;;;;;;;;;5104818;28;20016;-74
2022/03/02 12:24:33;;;;;;;12.63;7.13;;;;;;;;;;5106742;28;20035;-74
2022/03/02 12:27:11;;;;;;;13.50;7.50;;;;;;;;;;5106292;28;20087;-74
2022/03/02 12:29:42;;;;;;;13.05;6.30;;;;;;;;;;5106840;28;20115;-74
2022/03/02 12:32:12;;;;;;;13.13;6.75;;;;;;;;;;5106781;28;20383;-74
2022/03/02 12:34:44;;;;;;;14.52;6.90;;;;;;;;;;5106684;28;20032;-74
2022/03/02 12:37:12;;;;;;;14.30;6.88;;;;;;;;;;5106708;28;20028;-74
2022/03/02 12:39:39;;;;;;;13.30;7.47;;;;;;;;;;5105269;28;20411;-75
2022/03/02 12:42:08;;;;;;;11.18;6.57;;;;;;;;;;5105310;28;20031;-74
2022/03/02 12:44:54;;;;;;;13.77;7.40;;;;;;;;;;5106412;28;20031;-74
2022/03/02 12:47:24;;;;;;;10.85;7.25;;;;;;;;;;5105362;28;20023;-74
2022/03/02 12:49:52;;;;;;;13.93;7.15;;;;;;;;;;5105290;28;20051;-74
2022/03/02 12:52:21;;;;;;;13.07;7.45;;;;;;;;;;5105080;28;20032;-74
2022/03/02 12:54:49;;;;;;;12.70;6.53;;;;;;;;;;5106354;28;20128;-74
2022/03/02 12:57:17;;;;;;;14.00;6.75;;;;;;;;;;5106276;28;20024;-74
2022/03/02 12:59:43;;;;;;;12.05;6.53;;;;;;;;;;5106445;28;20059;-74
2022/03/02 13:02:12;;;;;;;14.50;7.70;;;;;;;;;;5106254;28;20031;-74
2022/03/02 13:04:59;;;;;;;18.75;7.88;;;;;;;;;;5105643;28;20035;-74
2022/03/02 13:07:27;;;;;;;16.20;8.38;;;;;;;;;;5106521;28;20036;-74
2022/03/02 13:09:56;;;;;;;17.40;8.75;;;;;;;;;;5106001;28;20051;-74
2022/03/02 13:12:29;;;;;;;16.63;9.55;;;;;;;;;;5106601;28;20032;-74
2022/03/02 13:14:56;;;;;;;15.10;8.23;;;;;;;;;;5104795;28;20058;-74
2022/03/02 13:17:22;;;;;;;15.48;8.05;;;;;;;;;;5106187;28;20028;-74
2022/03/02 13:19:50;;;;;;;17.00;9.00;;;;;;;;;;5106176;28;20028;-74
2022/03/02 13:22:31;;;;;;;18.42;8.52;;;;;;;;;;5105062;28;20032;-74
2022/03/02 13:25:02;;;;;;;15.95;8.43;;;;;;;;;;5105646;28;20328;-74
2022/03/02 13:27:28;;;;;;;13.88;7.85;;;;;;;;;;5105476;28;20043;-74
2022/03/02 13:30:01;;;;;;;16.25;8.35;;;;;;;;;;5104840;28;20032;-74
2022/03/02 13:32:59;;;;;;;13.82;7.55;;;;;;;;;;5104369;28;20061;-74
2022/03/02 13:35:33;;;;;;;16.20;8.55;;;;;;;;;;5080733;28;20071;-74
2022/03/02 13:38:10;;;;;;;14.07;8.23;;;;;;;;;;5103406;28;20032;-74
2022/03/02 13:40:41;;;;;;;14.18;7.95;;;;;;;;;;5102588;28;20047;-74
2022/03/02 13:43:12;;;;;;;14.73;8.13;;;;;;;;;;5103345;28;20032;-74
2022/03/02 13:45:58;;;;;;;16.95;8.10;;;;;;;;;;5102348;28;20024;-74
2022/03/02 13:48:25;;;;;;;14.50;7.45;;;;;;;;;;5103730;28;20092;-74
2022/03/02 13:51:00;;;;;;;16.20;7.50;;;;;;;;;;5102922;28;20035;-74
2022/03/02 13:53:38;;;;;;;14.90;7.75;;;;;;;;;;5104390;28;20063;-74
2022/03/02 13:56:07;;;;;;;12.85;7.10;;;;;;;;;;5104373;28;20032;-75
2022/03/02 13:58:34;;;;;;;12.65;7.47;;;;;;;;;;5104066;28;20024;-74
2022/03/02 14:01:18;;;;;;;14.35;7.50;;;;;;;;;;5104374;28;20085;-75
2022/03/02 14:04:04;;;;;;;12.88;7.28;;;;;;;;;;5103994;28;20531;-74
2022/03/02 14:06:32;;;;;;;14.65;7.10;;;;;;;;;;5104200;28;20036;-74
2022/03/02 14:08:57;;;;;;;12.45;6.55;;;;;;;;;;5103965;28;20035;-74
2022/03/02 14:11:41;;;;;;;12.45;7.05;;;;;;;;;;5102782;28;20028;-74
2022/03/02 14:14:10;;;;;;;16.08;7.30;;;;;;;;;;5104244;28;20040;-74
2022/03/02 14:16:37;;;;;;;13.98;6.45;;;;;;;;;;5104099;28;20058;-74
2022/03/02 14:19:10;;;;;;;13.73;8.10;;;;;;;;;;5102189;28;20032;-75
2022/03/02 14:21:37;;;;;;;17.90;8.18;;;;;;;;;;5103879;28;20056;-74
2022/03/02 14:24:16;;;;;;;17.40;8.77;;;;;;;;;;5103855;28;20130;-75
2022/03/02 14:27:00;;;;;;;15.90;8.20;;;;;;;;;;5059343;28;1239760;-75
2022/03/02 14:29:27;;;;;;;14.05;7.90;;;;;;;;;;5104519;28;20521;-74
2022/03/02 14:32:07;;;;;;;16.70;8.20;;;;;;;;;;5105004;28;20063;-74
2022/03/02 14:34:49;;;;;;;17.80;8.13;;;;;;;;;;5104547;28;20036;-74
2022/03/02 14:37:31;;;;;;;13.25;7.63;;;;;;;;;;5103083;28;20036;-75
2022/03/02 14:40:37;;;;;;;14.48;7.88;;;;;;;;;;5104428;28;20036;-74